createdAt,value
2023-04-10T00:00:23.880Z,101137.41
2023-04-10T00:02:50.891Z,101147.31
2023-04-10T00:05:17.746Z,101141.63
2023-04-10T00:07:44.430Z,101146.09
2023-04-10T00:10:11.176Z,101157.75
2023-04-10T00:12:38.029Z,101161.75
2023-04-10T00:15:05.351Z,101164.03
2023-04-10T00:17:32.106Z,101162.78
2023-04-10T00:19:59.468Z,101166.19
2023-04-10T00:22:26.570Z,101167.00
2023-04-10T00:24:53.720Z,101171.19
2023-04-10T00:27:20.459Z,101171.75
2023-04-10T00:29:47.173Z,101166.19
2023-04-10T00:32:14.002Z,101169.28
2023-04-10T00:34:40.750Z,101166.16
2023-04-10T00:37:07.477Z,101161.97
2023-04-10T00:39:34.213Z,101160.75
2023-04-10T00:42:02.315Z,101167.00
2023-04-10T00:44:29.209Z,101163.25
2023-04-10T00:46:56.045Z,101164.28
2023-04-10T00:49:22.800Z,101153.59
2023-04-10T00:51:49.695Z,101152.56
2023-04-10T00:54:16.777Z,101154.22
2023-04-10T00:56:44.816Z,101148.16
2023-04-10T00:59:11.571Z,101148.06
2023-04-10T01:01:38.569Z,101140.25
2023-04-10T01:04:05.962Z,101140.78
2023-04-10T01:06:46.127Z,101141.63
2023-04-10T01:09:31.149Z,101146.31
2023-04-10T01:12:11.562Z,101143.88
2023-04-10T01:14:49.158Z,101153.34
2023-04-10T01:17:28.341Z,101152.63
2023-04-10T01:20:04.402Z,101155.09
2023-04-10T01:22:38.020Z,101153.16
2023-04-10T01:25:50.634Z,101163.59
2023-04-10T01:28:20.475Z,101165.31
2023-04-10T01:30:50.620Z,101170.69
2023-04-10T01:33:20.611Z,101168.75
2023-04-10T01:35:52.446Z,101165.66
2023-04-10T01:38:21.366Z,101170.09
2023-04-10T01:40:52.615Z,101158.69
2023-04-10T01:43:32.086Z,101159.72
2023-04-10T01:46:00.034Z,101162.44
2023-04-10T01:48:28.077Z,101167.59
2023-04-10T01:50:56.759Z,101160.97
2023-04-10T01:53:24.580Z,101160.53
2023-04-10T01:55:53.570Z,101155.53
2023-04-10T01:58:20.594Z,101151.63
2023-04-10T02:00:47.756Z,101152.56
2023-04-10T02:03:16.075Z,101149.59
2023-04-10T02:06:02.421Z,101150.41
2023-04-10T02:08:42.555Z,101141.31
2023-04-10T02:11:15.352Z,101143.38
2023-04-10T02:13:42.869Z,101143.38
2023-04-10T02:16:12.733Z,101133.97
2023-04-10T02:18:42.141Z,101125.09
2023-04-10T02:21:09.122Z,101139.38
2023-04-10T02:23:36.974Z,101134.50
2023-04-10T02:26:09.969Z,101131.81
2023-04-10T02:28:40.235Z,101132.84
2023-04-10T02:31:07.408Z,101133.78
2023-04-10T02:33:34.119Z,101131.50
2023-04-10T02:36:02.268Z,101126.59
2023-04-10T02:38:29.083Z,101123.56
2023-04-10T02:40:56.099Z,101127.28
2023-04-10T02:43:23.149Z,101136.28
2023-04-10T02:45:50.163Z,101130.97
2023-04-10T02:48:23.323Z,101135.78
2023-04-10T02:50:58.741Z,101129.91
2023-04-10T02:53:26.957Z,101133.94
2023-04-10T02:55:57.357Z,101125.13
2023-04-10T02:58:24.273Z,101124.53
2023-04-10T03:00:54.105Z,101125.22
2023-04-10T03:03:34.310Z,101123.06
2023-04-10T03:06:01.184Z,101122.16
2023-04-10T03:08:31.521Z,101124.63
2023-04-10T03:10:58.527Z,101122.53
2023-04-10T03:13:25.525Z,101118.22
2023-04-10T03:15:52.618Z,101114.34
2023-04-10T03:18:19.994Z,101107.31
2023-04-10T03:20:49.683Z,101099.34
2023-04-10T03:23:19.264Z,101099.78
2023-04-10T03:25:49.792Z,101098.31
2023-04-10T03:28:17.822Z,101095.84
2023-04-10T03:30:44.564Z,101087.81
2023-04-10T03:33:11.369Z,101077.00
2023-04-10T03:35:38.048Z,101076.69
2023-04-10T03:38:07.049Z,101078.44
2023-04-10T03:40:34.398Z,101080.38
2023-04-10T03:43:01.240Z,101077.06
2023-04-10T03:45:30.750Z,101083.91
2023-04-10T03:47:59.998Z,101076.38
2023-04-10T03:50:31.955Z,101069.94
2023-04-10T03:53:01.120Z,101076.34
2023-04-10T03:55:28.069Z,101080.97
2023-04-10T03:57:55.281Z,101079.63
2023-04-10T04:00:24.587Z,101089.88
2023-04-10T04:03:01.020Z,101087.31
2023-04-10T04:05:46.219Z,101083.72
2023-04-10T04:08:31.516Z,101076.78
2023-04-10T04:11:07.243Z,101074.19
2023-04-10T04:13:46.694Z,101069.78
2023-04-10T04:16:31.798Z,101069.78
2023-04-10T04:19:22.607Z,101077.16
2023-04-10T04:22:24.431Z,101074.19
2023-04-10T04:25:24.134Z,101074.25
2023-04-10T04:28:16.039Z,101074.63
2023-04-10T04:31:00.809Z,101078.13
2023-04-10T04:33:49.728Z,101083.81
2023-04-10T04:36:31.401Z,101083.41
2023-04-10T04:39:18.360Z,101090.47
2023-04-10T04:42:00.043Z,101084.91
2023-04-10T04:44:45.854Z,101090.66
2023-04-10T04:47:21.585Z,101094.72
2023-04-10T04:49:58.859Z,101095.63
2023-04-10T04:52:45.560Z,101104.63
2023-04-10T04:55:24.851Z,101105.69
2023-04-10T04:57:54.348Z,101109.16
2023-04-10T05:00:41.208Z,101109.53
2023-04-10T05:03:20.396Z,101115.44
2023-04-10T05:06:02.191Z,101109.44
2023-04-10T05:08:46.464Z,101105.97
2023-04-10T05:11:29.699Z,101106.41
2023-04-10T05:14:18.634Z,101102.03
2023-04-10T05:17:03.883Z,101096.16
2023-04-10T05:19:49.118Z,101089.66
2023-04-10T05:22:35.379Z,101093.69
2023-04-10T05:25:16.634Z,101097.00
2023-04-10T05:28:03.619Z,101105.13
2023-04-10T05:30:52.281Z,101100.09
2023-04-10T05:33:46.979Z,101097.84
2023-04-10T05:36:33.382Z,101099.56
2023-04-10T05:39:18.498Z,101103.50
2023-04-10T05:42:03.896Z,101105.88
2023-04-10T05:44:45.611Z,101107.03
2023-04-10T05:47:30.970Z,101109.94
2023-04-10T05:50:16.376Z,101115.09
2023-04-10T05:53:14.406Z,101120.44
2023-04-10T05:55:45.152Z,101110.75
2023-04-10T05:58:40.340Z,101109.78
2023-04-10T06:01:18.085Z,101112.72
2023-04-10T06:03:47.519Z,101110.84
2023-04-10T06:06:16.373Z,101113.69
2023-04-10T06:08:43.306Z,101109.34
2023-04-10T06:11:10.592Z,101118.16
2023-04-10T06:13:37.519Z,101102.28
2023-04-10T06:16:04.596Z,101101.19
2023-04-10T06:18:32.856Z,101106.75
2023-04-10T06:21:01.878Z,101106.34
2023-04-10T06:23:28.792Z,101100.66
2023-04-10T06:25:56.063Z,101101.09
2023-04-10T06:28:22.802Z,101103.97
2023-04-10T06:30:54.289Z,101098.28
2023-04-10T06:33:28.969Z,101096.19
2023-04-10T06:35:55.926Z,101091.91
2023-04-10T06:38:23.228Z,101096.59
2023-04-10T06:40:50.402Z,101096.59
2023-04-10T06:43:17.169Z,101099.34
2023-04-10T06:45:43.813Z,101099.34
2023-04-10T06:48:10.440Z,101087.38
2023-04-10T06:50:37.064Z,101095.34
2023-04-10T06:53:03.697Z,101092.19
2023-04-10T06:55:30.725Z,101102.88
2023-04-10T06:57:57.365Z,101091.84
2023-04-10T07:00:49.122Z,101095.47
2023-04-10T07:03:15.869Z,101087.88
2023-04-10T07:05:42.599Z,101089.22
2023-04-10T07:08:09.249Z,101084.81
2023-04-10T07:10:36.236Z,101094.47
2023-04-10T07:13:03.036Z,101081.88
2023-04-10T07:15:29.671Z,101093.28
2023-04-10T07:17:56.413Z,101096.63
2023-04-10T07:20:23.160Z,101089.53
2023-04-10T07:22:49.841Z,101084.59
2023-04-10T07:25:18.304Z,101078.00
2023-04-10T07:27:44.949Z,101076.22
2023-04-10T07:30:13.559Z,101081.50
2023-04-10T07:32:42.244Z,101072.69
2023-04-10T07:35:09.774Z,101073.72
2023-04-10T07:37:36.576Z,101075.38
2023-04-10T07:40:03.670Z,101071.97
2023-04-10T07:42:30.392Z,101069.78
2023-04-10T07:44:57.448Z,101064.94
2023-04-10T07:47:24.501Z,101066.91
2023-04-10T07:49:51.315Z,101057.75
2023-04-10T07:52:18.049Z,101068.66
2023-04-10T07:54:44.652Z,101068.66
2023-04-10T07:57:11.312Z,101075.34
2023-04-10T07:59:37.946Z,101074.34
2023-04-10T08:02:04.816Z,101063.53
2023-04-10T08:04:31.759Z,101073.28
2023-04-10T08:06:58.629Z,101064.28
2023-04-10T08:09:25.464Z,101059.56
2023-04-10T08:11:52.190Z,101065.25
2023-04-10T08:14:18.888Z,101054.25
2023-04-10T08:16:45.863Z,101065.31
2023-04-10T08:19:12.695Z,101054.69
2023-04-10T08:21:39.517Z,101057.63
2023-04-10T08:24:06.362Z,101066.66
2023-04-10T08:26:33.178Z,101058.28
2023-04-10T08:29:00.817Z,101055.22
2023-04-10T08:31:28.809Z,101055.84
2023-04-10T08:33:56.555Z,101049.50
2023-04-10T08:36:23.959Z,101047.66
2023-04-10T08:38:50.704Z,101045.50
2023-04-10T08:41:19.562Z,101038.56
2023-04-10T08:43:46.716Z,101047.91
2023-04-10T08:46:14.697Z,101035.91
2023-04-10T08:48:53.271Z,101030.47
2023-04-10T08:51:26.355Z,101034.91
2023-04-10T08:53:58.701Z,101033.78
2023-04-10T08:56:26.376Z,101035.81
2023-04-10T08:58:53.389Z,101033.41
2023-04-10T09:01:21.481Z,101037.56
2023-04-10T09:03:49.012Z,101029.88
2023-04-10T09:06:15.816Z,101023.28
2023-04-10T09:08:42.581Z,101018.13
2023-04-10T09:11:09.395Z,101011.66
2023-04-10T09:13:41.103Z,101010.16
2023-04-10T09:16:09.543Z,101002.91
2023-04-10T09:18:43.444Z,101006.09
2023-04-10T09:21:11.888Z,101000.22
2023-04-10T09:23:38.966Z,100991.03
2023-04-10T09:26:23.259Z,100991.63
2023-04-10T09:29:19.205Z,100980.91
2023-04-10T09:31:45.963Z,100987.06
2023-04-10T09:34:22.220Z,100976.53
2023-04-10T09:36:57.958Z,100980.78
2023-04-10T09:39:34.860Z,100971.50
2023-04-10T09:42:01.755Z,100979.44
2023-04-10T09:44:31.713Z,100977.00
2023-04-10T09:46:59.370Z,100972.75
2023-04-10T09:49:26.103Z,100957.16
2023-04-10T09:51:53.076Z,100956.41
2023-04-10T09:54:35.934Z,100954.75
2023-04-10T09:57:04.307Z,100942.28
2023-04-10T09:59:31.517Z,100943.91
2023-04-10T10:01:58.705Z,100939.34
2023-04-10T10:04:26.783Z,100935.03
2023-04-10T10:06:53.824Z,100925.56
2023-04-10T10:09:21.125Z,100930.72
2023-04-10T10:11:50.539Z,100921.25
2023-04-10T10:14:21.482Z,100922.34
2023-04-10T10:16:52.557Z,100923.78
2023-04-10T10:19:31.308Z,100919.69
2023-04-10T10:22:01.221Z,100927.31
2023-04-10T10:24:29.815Z,100912.91
2023-04-10T10:26:59.444Z,100915.22
2023-04-10T10:29:28.585Z,100914.56
2023-04-10T10:31:56.559Z,100908.44
2023-04-10T10:34:23.350Z,100910.94
2023-04-10T10:36:50.407Z,100903.59
2023-04-10T10:39:53.138Z,100902.06
2023-04-10T10:42:33.365Z,100892.31
2023-04-10T10:45:12.348Z,100887.69
2023-04-10T10:47:44.769Z,100878.47
2023-04-10T10:50:11.589Z,100891.44
2023-04-10T10:52:54.091Z,100884.97
2023-04-10T10:55:31.603Z,100876.56
2023-04-10T10:58:01.128Z,100875.47
2023-04-10T11:00:50.739Z,100878.16
2023-04-10T11:03:17.521Z,100871.69
2023-04-10T11:06:06.376Z,100871.94
2023-04-10T11:08:35.803Z,100866.19
2023-04-10T11:11:07.254Z,100864.91
2023-04-10T11:13:59.693Z,100869.50
2023-04-10T11:16:40.800Z,100860.00
2023-04-10T11:19:16.470Z,100853.47
2023-04-10T11:21:59.367Z,100843.13
2023-04-10T11:24:26.632Z,100836.28
2023-04-10T11:26:53.240Z,100836.25
2023-04-10T11:29:28.734Z,100815.34
2023-04-10T11:32:05.833Z,100813.72
2023-04-10T11:34:33.237Z,100810.72
2023-04-10T11:37:02.971Z,100815.88
2023-04-10T11:39:30.716Z,100811.13
2023-04-10T11:41:57.698Z,100810.78
2023-04-10T11:44:35.092Z,100804.78
2023-04-10T11:47:01.808Z,100805.03
2023-04-10T11:49:31.667Z,100804.53
2023-04-10T11:51:59.094Z,100800.94
2023-04-10T11:54:27.443Z,100791.16
2023-04-10T11:57:06.433Z,100782.25
2023-04-10T11:59:33.985Z,100778.69
2023-04-10T12:02:15.018Z,100771.69
2023-04-10T12:04:43.650Z,100770.25
2023-04-10T12:07:10.992Z,100760.47
2023-04-10T12:09:37.628Z,100769.16
2023-04-10T12:12:06.571Z,100762.09
2023-04-10T12:14:42.680Z,100756.06
2023-04-10T12:17:11.533Z,100755.00
2023-04-10T12:19:39.452Z,100754.09
2023-04-10T12:22:06.702Z,100755.91
2023-04-10T12:24:47.458Z,100737.22
2023-04-10T12:27:21.013Z,100739.13
2023-04-10T12:29:49.425Z,100729.16
2023-04-10T12:32:16.538Z,100735.50
2023-04-10T12:34:50.592Z,100737.13
2023-04-10T12:37:17.456Z,100725.94
2023-04-10T12:39:44.135Z,100722.47
2023-04-10T12:42:20.597Z,100720.00
2023-04-10T12:44:55.040Z,100724.91
2023-04-10T12:47:23.000Z,100713.16
2023-04-10T12:50:10.836Z,100715.00
2023-04-10T12:52:40.794Z,100708.34
2023-04-10T12:55:23.662Z,100702.97
2023-04-10T12:57:51.879Z,100696.84
2023-04-10T13:00:19.814Z,100697.78
2023-04-10T13:02:48.505Z,100701.72
2023-04-10T13:05:15.683Z,100693.09
2023-04-10T13:07:42.608Z,100687.00
2023-04-10T13:10:09.713Z,100687.72
2023-04-10T13:12:37.893Z,100684.38
2023-04-10T13:15:05.213Z,100676.44
2023-04-10T13:17:31.912Z,100668.47
2023-04-10T13:19:58.523Z,100668.00
2023-04-10T13:22:25.219Z,100658.41
2023-04-10T13:24:51.797Z,100650.53
2023-04-10T13:27:18.390Z,100661.16
2023-04-10T13:29:45.020Z,100652.56
2023-04-10T13:32:11.648Z,100653.88
2023-04-10T13:34:38.239Z,100644.13
2023-04-10T13:37:04.840Z,100645.72
2023-04-10T13:39:32.010Z,100636.03
2023-04-10T13:41:59.381Z,100627.97
2023-04-10T13:44:26.110Z,100623.81
2023-04-10T13:46:53.182Z,100615.88
2023-04-10T13:49:21.858Z,100609.91
2023-04-10T13:51:48.576Z,100607.06
2023-04-10T13:54:17.225Z,100605.59
2023-04-10T13:56:46.410Z,100604.50
2023-04-10T13:59:13.408Z,100602.38
2023-04-10T14:01:40.071Z,100592.75
2023-04-10T14:04:07.043Z,100585.47
2023-04-10T14:06:35.064Z,100587.53
2023-04-10T14:09:01.807Z,100586.41
2023-04-10T14:11:28.495Z,100584.00
2023-04-10T14:13:55.378Z,100583.94
2023-04-10T14:16:22.042Z,100579.81
2023-04-10T14:18:48.647Z,100579.81
2023-04-10T14:21:15.391Z,100573.91
2023-04-10T14:23:42.944Z,100566.75
2023-04-10T14:26:09.621Z,100562.72
2023-04-10T14:28:36.537Z,100560.28
2023-04-10T14:31:04.897Z,100567.19
2023-04-10T14:33:31.766Z,100560.19
2023-04-10T14:35:58.449Z,100558.94
2023-04-10T14:38:25.077Z,100545.38
2023-04-10T14:40:51.860Z,100553.06
2023-04-10T14:43:19.515Z,100544.50
2023-04-10T14:45:46.354Z,100539.94
2023-04-10T14:48:13.437Z,100529.13
2023-04-10T14:50:40.781Z,100534.28
2023-04-10T14:53:09.804Z,100535.25
2023-04-10T14:55:37.268Z,100531.00
2023-04-10T14:58:04.486Z,100515.44
2023-04-10T15:00:32.152Z,100508.38
2023-04-10T15:02:59.104Z,100503.63
2023-04-10T15:05:27.119Z,100505.44
2023-04-10T15:07:54.399Z,100505.81
2023-04-10T15:10:21.169Z,100492.94
2023-04-10T15:12:47.888Z,100485.41
2023-04-10T15:15:14.494Z,100478.63
2023-04-10T15:17:41.315Z,100482.69
2023-04-10T15:20:08.453Z,100473.88
2023-04-10T15:22:35.770Z,100472.75
2023-04-10T15:25:02.725Z,100467.31
2023-04-10T15:27:30.533Z,100462.09
2023-04-10T15:29:57.393Z,100457.13
2023-04-10T15:32:24.108Z,100460.88
2023-04-10T15:34:50.794Z,100455.63
2023-04-10T15:37:17.436Z,100459.38
2023-04-10T15:39:44.170Z,100460.25
2023-04-10T15:42:11.052Z,100461.13
2023-04-10T15:44:37.725Z,100459.81
2023-04-10T15:47:04.401Z,100466.31
2023-04-10T15:49:37.925Z,100460.56
2023-04-10T15:52:08.576Z,100460.81
2023-04-10T15:54:35.591Z,100445.91
2023-04-10T15:57:03.365Z,100433.69
2023-04-10T15:59:30.042Z,100424.72
2023-04-10T16:01:56.913Z,100417.81
2023-04-10T16:04:23.891Z,100404.03
2023-04-10T16:06:50.804Z,100410.22
2023-04-10T16:09:25.387Z,100394.31
2023-04-10T16:11:54.141Z,100387.97
2023-04-10T16:14:20.794Z,100388.97
2023-04-10T16:16:47.478Z,100386.00
2023-04-10T16:19:14.128Z,100385.03
2023-04-10T16:21:40.803Z,100388.06
2023-04-10T16:24:07.555Z,100388.44
2023-04-10T16:26:34.206Z,100390.47
2023-04-10T16:29:00.974Z,100395.03
2023-04-10T16:31:27.711Z,100403.13
2023-04-10T16:33:54.384Z,100399.78
2023-04-10T16:36:20.964Z,100396.63
2023-04-10T16:38:49.865Z,100394.50
2023-04-10T16:41:20.786Z,100398.59
2023-04-10T16:43:47.864Z,100395.59
2023-04-10T16:46:14.965Z,100392.19
2023-04-10T16:48:41.933Z,100396.69
2023-04-10T16:51:15.852Z,100380.97
2023-04-10T16:53:42.541Z,100389.63
2023-04-10T16:56:09.473Z,100378.53
2023-04-10T16:58:37.561Z,100376.09
2023-04-10T17:01:21.475Z,100371.75
2023-04-10T17:03:48.673Z,100363.66
2023-04-10T17:06:16.087Z,100357.13
2023-04-10T17:08:43.540Z,100353.38
2023-04-10T17:11:12.499Z,100350.69
2023-04-10T17:13:40.434Z,100351.84
2023-04-10T17:16:08.041Z,100354.03
2023-04-10T17:18:34.776Z,100347.50
2023-04-10T17:21:01.409Z,100344.56
2023-04-10T17:23:28.218Z,100344.84
2023-04-10T17:25:54.942Z,100339.16
2023-04-10T17:28:21.664Z,100342.16
2023-04-10T17:30:48.371Z,100341.38
2023-04-10T17:33:15.011Z,100326.97
2023-04-10T17:35:42.104Z,100315.94
2023-04-10T17:38:08.903Z,100317.88
2023-04-10T17:40:37.111Z,100301.69
2023-04-10T17:43:04.029Z,100298.22
2023-04-10T17:45:30.664Z,100296.03
2023-04-10T17:47:57.354Z,100294.94
2023-04-10T17:50:24.098Z,100303.66
2023-04-10T17:52:51.030Z,100314.56
2023-04-10T17:55:20.412Z,100311.06
2023-04-10T17:57:48.160Z,100305.38
2023-04-10T18:00:15.888Z,100319.84
2023-04-10T18:02:43.159Z,100315.25
2023-04-10T18:05:10.146Z,100319.06
2023-04-10T18:07:39.887Z,100313.41
2023-04-10T18:10:09.812Z,100309.13
2023-04-10T18:12:37.804Z,100318.34
2023-04-10T18:15:05.142Z,100334.63
2023-04-10T18:17:31.890Z,100345.25
2023-04-10T18:19:58.617Z,100345.25
2023-04-10T18:22:25.470Z,100348.53
2023-04-10T18:24:52.242Z,100349.34
2023-04-10T18:27:19.003Z,100333.91
2023-04-10T18:29:45.785Z,100333.09
2023-04-10T18:32:12.738Z,100323.63
2023-04-10T18:34:39.570Z,100312.72
2023-04-10T18:37:08.244Z,100324.41
2023-04-10T18:39:38.050Z,100329.88
2023-04-10T18:42:10.581Z,100334.22
2023-04-10T18:44:37.490Z,100330.19
2023-04-10T18:47:05.235Z,100326.94
2023-04-10T18:49:32.213Z,100321.78
2023-04-10T18:51:58.854Z,100313.38
2023-04-10T18:54:28.476Z,100312.53
2023-04-10T18:56:56.558Z,100318.81
2023-04-10T18:59:23.373Z,100318.00
2023-04-10T19:01:50.290Z,100330.19
2023-04-10T19:04:17.068Z,100340.22
2023-04-10T19:06:46.066Z,100342.94
2023-04-10T19:09:13.460Z,100337.25
2023-04-10T19:11:40.491Z,100351.66
2023-04-10T19:14:07.171Z,100358.75
2023-04-10T19:19:05.644Z,100347.34
2023-04-10T19:21:32.408Z,100331.88
2023-04-10T19:23:59.099Z,100328.69
2023-04-10T19:26:25.825Z,100330.28
2023-04-10T19:28:52.754Z,100324.59
2023-04-10T19:31:19.819Z,100329.78
2023-04-10T19:33:46.595Z,100324.63
2023-04-10T19:36:15.597Z,100332.81
2023-04-10T19:38:44.422Z,100332.28
2023-04-10T19:41:17.904Z,100328.22
2023-04-10T19:43:44.686Z,100328.78
2023-04-10T19:46:21.003Z,100333.09
2023-04-10T19:48:49.048Z,100328.78
2023-04-10T19:51:15.898Z,100326.59
2023-04-10T19:53:42.564Z,100317.13
2023-04-10T19:56:09.532Z,100316.56
2023-04-10T19:58:40.969Z,100310.41
2023-04-10T20:01:08.969Z,100302.00
2023-04-10T20:03:36.731Z,100295.44
2023-04-10T20:06:04.572Z,100292.78
2023-04-10T20:08:31.198Z,100293.88
2023-04-10T20:10:58.412Z,100281.66
2023-04-10T20:13:25.661Z,100268.09
2023-04-10T20:15:52.519Z,100263.84
2023-04-10T20:18:19.209Z,100260.06
2023-04-10T20:20:46.978Z,100253.81
2023-04-10T20:23:14.066Z,100252.41
2023-04-10T20:25:40.728Z,100252.69
2023-04-10T20:28:07.466Z,100253.88
2023-04-10T20:30:35.832Z,100250.66
2023-04-10T20:33:02.531Z,100251.72
2023-04-10T20:35:29.186Z,100249.25
2023-04-10T20:37:55.996Z,100243.59
2023-04-10T20:40:22.716Z,100239.28
2023-04-10T20:42:49.458Z,100225.16
2023-04-10T20:45:16.316Z,100218.09
2023-04-10T20:47:43.144Z,100224.34
2023-04-10T20:50:11.498Z,100217.06
2023-04-10T20:52:39.880Z,100211.66
2023-04-10T20:55:06.925Z,100218.19
2023-04-10T20:57:34.088Z,100223.84
2023-04-10T21:00:00.844Z,100218.19
2023-04-10T21:02:30.184Z,100224.91
2023-04-10T21:04:57.118Z,100234.94
2023-04-10T21:07:23.823Z,100235.25
2023-04-10T21:09:50.465Z,100243.13
2023-04-10T21:12:17.129Z,100238.78
2023-04-10T21:14:43.782Z,100231.19
2023-04-10T21:17:10.553Z,100233.66
2023-04-10T21:19:37.219Z,100239.63
2023-04-10T21:22:04.006Z,100242.88
2023-04-10T21:24:30.830Z,100233.97
2023-04-10T21:26:57.633Z,100228.00
2023-04-10T21:29:24.468Z,100226.09
2023-04-10T21:31:51.178Z,100214.19
2023-04-10T21:34:17.893Z,100205.25
2023-04-10T21:36:44.490Z,100218.25
2023-04-10T21:39:11.209Z,100228.00
2023-04-10T21:41:38.947Z,100208.28
2023-04-10T21:44:06.579Z,100201.50
2023-04-10T21:46:33.676Z,100186.38
2023-04-10T21:49:01.072Z,100168.75
2023-04-10T21:51:28.266Z,100137.63
2023-04-10T21:53:55.174Z,100121.94
2023-04-10T21:56:21.948Z,100136.03
2023-04-10T21:58:48.819Z,100130.66
2023-04-10T22:01:15.764Z,100134.94
2023-04-10T22:03:42.550Z,100133.88
2023-04-10T22:06:09.895Z,100132.50
2023-04-10T22:08:38.474Z,100131.22
2023-04-10T22:11:05.926Z,100114.97
2023-04-10T22:13:32.850Z,100102.72
2023-04-10T22:16:03.476Z,100116.78
2023-04-10T22:18:30.314Z,100114.66
2023-04-10T22:20:57.203Z,100103.06
2023-04-10T22:23:24.166Z,100096.59
2023-04-10T22:25:50.883Z,100111.22
2023-04-10T22:28:17.635Z,100117.47
2023-04-10T22:30:44.452Z,100114.72
2023-04-10T22:33:11.957Z,100114.53
2023-04-10T22:35:38.664Z,100128.56
2023-04-10T22:38:05.510Z,100119.41
2023-04-10T22:40:32.373Z,100137.81
2023-04-10T22:42:59.009Z,100135.44
2023-04-10T22:45:25.785Z,100130.31
2023-04-10T22:47:52.482Z,100133.56
2023-04-10T22:50:19.342Z,100146.03
2023-04-10T22:52:46.015Z,100144.72
2023-04-10T22:55:12.865Z,100145.25
2023-04-10T22:57:39.513Z,100138.75
2023-04-10T23:00:06.957Z,100147.69
2023-04-10T23:02:33.798Z,100147.13
2023-04-10T23:05:00.631Z,100154.16
2023-04-10T23:07:27.930Z,100156.56
2023-04-10T23:09:54.651Z,100155.22
2023-04-10T23:12:21.350Z,100163.56
2023-04-10T23:14:48.021Z,100157.59
2023-04-10T23:17:14.857Z,100157.34
2023-04-10T23:19:41.478Z,100168.69
2023-04-10T23:22:08.176Z,100168.31
2023-04-10T23:24:34.921Z,100175.03
2023-04-10T23:27:01.580Z,100167.50
2023-04-10T23:29:28.179Z,100165.34
2023-04-10T23:31:54.871Z,100161.31
2023-04-10T23:34:21.613Z,100152.13
2023-04-10T23:36:48.288Z,100155.63
2023-04-10T23:39:15.433Z,100143.72
2023-04-10T23:41:42.426Z,100143.63
2023-04-10T23:44:09.540Z,100126.84
2023-04-10T23:46:36.280Z,100125.78
2023-04-10T23:49:02.962Z,100121.09
2023-04-10T23:51:31.822Z,100121.66
2023-04-10T23:53:58.977Z,100115.19
2023-04-10T23:56:29.155Z,100119.22
2023-04-10T23:58:56.506Z,100123.78
